Observations for LEEDS AND BRADFORD, United Kingdom (EGNM)

EGNM 141220Z 04014G30KT 360V080 9999 FEW020 05/01 Q1001 
EGNM 141150Z 03012G23KT 360V060 9999 FEW015 SCT040 05/01 Q1001  
EGNM 141120Z 02012G24KT 360V060 9999 FEW020 SCT040 05/01 Q1001  
EGNM 141050Z 03014G26KT 350V070 9999 SCT036 05/01 Q1001 
EGNM 141020Z 03012KT 340V080 9999 SCT020 05/02 Q1000
EGNM 140950Z 03012KT 360V070 9999 FEW020 05/02 Q1000
EGNM 140920Z 03012G24KT 350V070 9999 FEW030 04/01 Q1000 
EGNM 140850Z 03010KT 360V070 9999 FEW030 04/02 Q1000
EGNM 140820Z 03010KT 350V060 9999 FEW035 04/02 Q0999
EGNM 140750Z 03010KT 360V070 9999 FEW030 SCT040 04/02 Q0999 
EGNM 140720Z 04011KT 350V090 9999 FEW044 03/02 Q0998
EGNM 140650Z 04010KT 360V070 9999 FEW024 SCT030 04/02 Q0998 
EGNM 140620Z 04010KT 360V080 9999 -SHRA SCT022 SCT034 04/02 Q0997   
EGNM 140550Z 04010KT 360V070 9999 FEW025 SCT040 03/02 Q0997 
EGNM 140520Z 03008KT 360V070 9999 BKN028 03/02 Q0997
EGNM 140450Z 04011KT 360V080 9999 FEW021 SCT025 03/02 Q0996 
EGNM 140420Z 04009KT 010V090 9999 FEW021 SCT025 03/02 Q0996 
EGNM 140350Z 04007KT 010V070 9999 BKN020 03/03 Q0996
EGNM 140320Z 05008KT 010V090 9999 -SHRA BKN018 03/03 Q0995  
EGNM 140250Z 05008KT 010V100 9999 SCT023 04/03 Q0995
EGNM 140220Z 05006KT 010V110 9999 SCT022 03/03 Q0995
EGNM 140150Z 04008KT 010V090 9999 SCT022 03/03 Q0995
EGNM 140120Z 06007KT 010V100 9999 BKN015 02/02 Q0995
EGNM 140050Z 05007KT 010V090 9999 FEW002 SCT023 02/02 Q0994 
EGNM 140020Z 06007KT 020V100 0900 FG SCT001 BKN003 02/02 Q0994  
EGNM 132350Z 06006KT 360V120 0500 FG OVC002 03/03 Q0994 
EGNM 132320Z 07007KT 030V110 0250 FG OVC002 02/02 Q0994 
EGNM 132250Z 07006KT 010V110 0300 FG OVC001 02/02 Q0994 
EGNM 132220Z 07006KT 030V110 0300 R32/0375 FG OVC001 02/02 Q0994
EGNM 132150Z 07007KT 030V140 0250 R32/0450 FG VV/// 02/02 Q0994 
EGNM 132120Z 08007KT 050V110 0250 R14/0600 FG VV/// 02/02 Q0993 
EGNM 132050Z 07006KT 0250 R14/0450 FG VV/// 02/02 Q0994 
EGNM 132020Z 07006KT 010V090 0250 R14/0375 FG SCT002 BKN004 02/02 Q0993 
EGNM 131950Z 07005KT 010V160 3500 BR SCT003 SCT013 02/02 Q0993  
EGNM 131920Z 08004KT 010V100 4500 BR SCT005 SCT015 03/03 Q0994  
EGNM 131850Z 09004KT 070V160 9000 2500N BR SCT004 BKN014 03/02 Q0994
EGNM 131820Z 08004KT 010V110 9999 3500N VCFG FEW009 SCT016 02/02 Q0994  
EGNM 131750Z 09004KT 9999 FEW035 02/02 Q0994
EGNM 131720Z VRB03KT 9999 FEW034 03/02 Q0994
EGNM 131650Z 10002KT 9999 FEW033 03/01 Q0994
EGNM 131620Z 11002KT 9999 FEW019 SCT032 03/02 Q0994 
EGNM 131550Z 16003KT 9999 FEW015 SCT031 05/02 Q0994 
EGNM 131520Z 16004KT 120V190 9999 SCT019 05/03 Q0994
EGNM 131450Z VRB03KT 9999 SCT019 05/02 Q0995
EGNM 131420Z 17003KT 9999 SCT018 05/03 Q0995
EGNM 131350Z VRB03KT 9999 SCT016 05/02 Q0995
EGNM 131320Z 22004KT 160V250 9999 SCT015 06/02 Q0995
EGNM 131250Z VRB03KT 9999 SCT015 05/03 Q0996
EGNM 131220Z 22004KT 190V250 9999 FEW030 05/03 Q0996
EGNM 131150Z 23004KT 200V270 9999 FEW028 05/03 Q0996